createdAt,value
2019-06-15T00:00:51.661Z,22.6
2019-06-15T00:01:54.123Z,22.6
2019-06-15T00:02:56.273Z,22.6
2019-06-15T00:03:58.705Z,22.7
2019-06-15T00:05:00.355Z,22.6
2019-06-15T00:06:02.254Z,22.6
2019-06-15T00:07:04.700Z,22.6
2019-06-15T00:08:06.843Z,22.5
2019-06-15T00:09:08.749Z,22.6
2019-06-15T00:10:10.891Z,22.6
2019-06-15T00:11:13.109Z,22.7
2019-06-15T00:12:15.587Z,22.6
2019-06-15T00:13:17.736Z,22.6
2019-06-15T00:14:20.173Z,22.7
2019-06-15T00:15:22.602Z,22.7
2019-06-15T00:16:25.055Z,22.6
2019-06-15T00:17:27.482Z,22.6
2019-06-15T00:18:29.647Z,22.7
2019-06-15T00:19:32.113Z,22.7
2019-06-15T00:20:34.283Z,22.6
2019-06-15T00:21:36.710Z,22.5
2019-06-15T00:22:39.155Z,22.5
2019-06-15T00:23:41.587Z,22.6
2019-06-15T00:24:44.013Z,22.6
2019-06-15T00:25:46.173Z,22.6
2019-06-15T00:26:48.592Z,22.6
2019-06-15T00:27:50.776Z,22.6
2019-06-15T00:28:52.907Z,22.5
2019-06-15T00:29:55.063Z,22.7
2019-06-15T00:30:57.505Z,22.6
2019-06-15T00:31:59.936Z,22.6
2019-06-15T00:33:02.372Z,22.6
2019-06-15T00:34:04.908Z,22.6
2019-06-15T00:35:07.335Z,22.6
2019-06-15T00:36:09.488Z,22.5
2019-06-15T00:37:11.913Z,22.7
2019-06-15T00:38:13.778Z,22.7
2019-06-15T00:39:16.230Z,22.6
2019-06-15T00:40:18.405Z,22.7
2019-06-15T00:41:20.826Z,22.7
2019-06-15T00:42:22.977Z,22.7
2019-06-15T00:43:25.112Z,22.6
2019-06-15T00:44:27.009Z,22.7
2019-06-15T00:45:29.177Z,22.7
2019-06-15T00:46:31.329Z,22.6
2019-06-15T00:47:33.476Z,22.5
2019-06-15T00:48:35.620Z,22.7
2019-06-15T00:49:37.781Z,22.6
2019-06-15T00:50:39.926Z,22.6
2019-06-15T00:51:42.086Z,22.6
2019-06-15T00:52:44.518Z,22.5
2019-06-15T00:53:46.945Z,22.6
2019-06-15T00:54:51.207Z,22.7
2019-06-15T00:55:53.382Z,22.7
2019-06-15T00:56:55.832Z,22.6
2019-06-15T00:57:57.978Z,22.6
2019-06-15T00:59:00.406Z,22.5
2019-06-15T01:00:03.073Z,22.5
2019-06-15T01:01:05.524Z,22.5
2019-06-15T01:02:07.686Z,22.6
2019-06-15T01:03:09.554Z,22.5
2019-06-15T01:04:11.980Z,22.6
2019-06-15T01:05:14.153Z,22.4
2019-06-15T01:06:16.617Z,22.5
2019-06-15T01:07:18.776Z,22.4
2019-06-15T01:08:21.228Z,22.5
2019-06-15T01:09:23.659Z,22.5
2019-06-15T01:10:26.093Z,22.5
2019-06-15T01:11:28.237Z,22.4
2019-06-15T01:12:30.677Z,22.5
2019-06-15T01:13:33.104Z,22.5
2019-06-15T01:14:35.299Z,22.4
2019-06-15T01:15:37.195Z,22.5
2019-06-15T01:16:39.628Z,22.5
2019-06-15T01:17:42.041Z,22.5
2019-06-15T01:18:43.915Z,22.5
2019-06-15T01:19:46.164Z,22.4
2019-06-15T01:20:48.046Z,22.4
2019-06-15T01:21:50.491Z,22.4
2019-06-15T01:22:52.372Z,22.4
2019-06-15T01:23:54.549Z,22.5
2019-06-15T01:26:02.041Z,22.4
2019-06-15T01:27:03.652Z,22.4
2019-06-15T01:28:06.079Z,22.3
2019-06-15T01:29:08.499Z,22.4
2019-06-15T01:30:10.656Z,22.5
2019-06-15T01:31:12.815Z,22.5
2019-06-15T01:32:15.234Z,22.4
2019-06-15T01:33:17.126Z,22.4
2019-06-15T01:34:19.279Z,22.4
2019-06-15T01:35:21.417Z,22.4
2019-06-15T01:36:23.568Z,22.4
2019-06-15T01:37:25.989Z,22.4
2019-06-15T01:38:28.421Z,22.4
2019-06-15T01:39:30.573Z,22.3
2019-06-15T01:40:32.473Z,22.4
2019-06-15T01:41:34.901Z,22.4
2019-06-15T01:42:37.317Z,22.3
2019-06-15T01:43:39.744Z,22.4
2019-06-15T01:44:42.176Z,22.5
2019-06-15T01:45:44.030Z,22.4
2019-06-15T01:46:46.176Z,22.5
2019-06-15T01:47:48.051Z,22.5
2019-06-15T01:48:49.953Z,22.4
2019-06-15T01:49:52.122Z,22.4
2019-06-15T01:50:54.550Z,22.4
2019-06-15T01:51:56.414Z,22.4
2019-06-15T01:52:58.836Z,22.4
2019-06-15T01:54:01.402Z,22.4
2019-06-15T01:55:03.846Z,22.4
2019-06-15T01:56:10.773Z,22.4
2019-06-15T01:57:12.922Z,22.4
2019-06-15T01:58:15.101Z,22.4
2019-06-15T01:59:17.541Z,22.5
2019-06-15T02:00:19.421Z,22.4
2019-06-15T02:01:21.856Z,22.4
2019-06-15T02:02:24.014Z,22.4
2019-06-15T02:03:26.182Z,22.5
2019-06-15T02:04:28.063Z,22.4
2019-06-15T02:05:30.519Z,22.4
2019-06-15T02:06:32.972Z,22.4
2019-06-15T02:07:35.545Z,22.4
2019-06-15T02:08:37.703Z,22.3
2019-06-15T02:09:40.119Z,22.4
2019-06-15T02:10:42.266Z,22.4
2019-06-15T02:11:44.712Z,22.4
2019-06-15T02:12:47.134Z,22.4
2019-06-15T02:13:49.565Z,22.5
2019-06-15T02:14:51.748Z,22.4
2019-06-15T02:15:53.632Z,22.4
2019-06-15T02:16:55.771Z,22.5
2019-06-15T02:17:57.932Z,22.3
2019-06-15T02:19:00.411Z,22.4
2019-06-15T02:20:02.569Z,22.5
2019-06-15T02:21:05.039Z,22.5
2019-06-15T02:22:07.202Z,22.5
2019-06-15T02:23:09.403Z,22.3
2019-06-15T02:24:11.873Z,22.4
2019-06-15T02:25:14.027Z,22.4
2019-06-15T02:26:16.487Z,22.4
2019-06-15T02:27:18.644Z,22.4
2019-06-15T02:28:21.073Z,22.4
2019-06-15T02:29:23.261Z,22.4
2019-06-15T02:30:25.686Z,22.3
2019-06-15T02:31:28.154Z,22.3
2019-06-15T02:32:30.573Z,22.4
2019-06-15T02:33:33.001Z,22.4
2019-06-15T02:34:35.430Z,22.5
2019-06-15T02:35:37.861Z,22.4
2019-06-15T02:36:40.290Z,22.4
2019-06-15T02:37:42.714Z,22.4
2019-06-15T02:38:44.874Z,22.3
2019-06-15T02:39:47.328Z,22.4
2019-06-15T02:40:49.765Z,22.5
2019-06-15T02:41:51.929Z,22.3
2019-06-15T02:42:54.359Z,22.4
2019-06-15T02:43:56.795Z,22.4
2019-06-15T02:44:59.217Z,22.3
2019-06-15T02:46:01.378Z,22.3
2019-06-15T02:47:03.786Z,22.3
2019-06-15T02:48:06.208Z,22.4
2019-06-15T02:49:08.374Z,22.3
2019-06-15T02:50:10.543Z,22.3
2019-06-15T02:51:12.969Z,22.4
2019-06-15T02:52:15.415Z,22.3
2019-06-15T02:53:17.853Z,22.4
2019-06-15T02:54:20.023Z,22.3
2019-06-15T02:55:22.454Z,22.5
2019-06-15T02:56:24.899Z,22.3
2019-06-15T02:57:27.054Z,22.2
2019-06-15T02:58:29.483Z,22.3
2019-06-15T02:59:33.011Z,22.3
2019-06-15T03:00:35.179Z,22.4
2019-06-15T03:01:37.631Z,22.3
2019-06-15T03:02:39.806Z,22.3
2019-06-15T03:03:41.943Z,22.4
2019-06-15T03:04:44.375Z,22.4
2019-06-15T03:05:46.533Z,22.2
2019-06-15T03:06:48.978Z,22.4
2019-06-15T03:07:51.158Z,22.3
2019-06-15T03:08:53.359Z,22.4
2019-06-15T03:09:55.785Z,22.4
2019-06-15T03:10:57.665Z,22.3
2019-06-15T03:12:00.093Z,22.4
2019-06-15T03:13:02.731Z,22.4
2019-06-15T03:14:05.149Z,22.4
2019-06-15T03:15:07.581Z,22.2
2019-06-15T03:16:09.743Z,22.4
2019-06-15T03:17:11.895Z,22.4
2019-06-15T03:18:14.060Z,22.4
2019-06-15T03:19:15.966Z,22.4
2019-06-15T03:20:18.148Z,22.4
2019-06-15T03:21:20.616Z,22.4
2019-06-15T03:22:23.054Z,22.4
2019-06-15T03:23:25.208Z,22.3
2019-06-15T03:24:27.640Z,22.3
2019-06-15T03:25:29.777Z,22.5
2019-06-15T03:26:31.637Z,22.3
2019-06-15T03:27:34.084Z,22.4
2019-06-15T03:28:36.523Z,22.3
2019-06-15T03:29:38.955Z,22.3
2019-06-15T03:30:41.108Z,22.3
2019-06-15T03:31:42.714Z,22.4
2019-06-15T03:32:45.163Z,22.4
2019-06-15T03:33:47.597Z,22.4
2019-06-15T03:34:50.038Z,22.3
2019-06-15T03:35:52.166Z,22.3
2019-06-15T03:36:54.038Z,22.3
2019-06-15T03:37:56.181Z,22.4
2019-06-15T03:38:57.763Z,22.3
2019-06-15T03:39:59.654Z,22.3
2019-06-15T03:41:02.121Z,22.3
2019-06-15T03:42:04.014Z,22.3
2019-06-15T03:43:06.445Z,22.3
2019-06-15T03:44:08.871Z,22.4
2019-06-15T03:45:11.307Z,22.4
2019-06-15T03:46:13.462Z,22.3
2019-06-15T03:47:15.895Z,22.3
2019-06-15T03:48:18.363Z,22.4
2019-06-15T03:49:20.514Z,22.3
2019-06-15T03:50:22.662Z,22.3
2019-06-15T03:51:24.824Z,22.4
2019-06-15T03:52:26.981Z,22.3
2019-06-15T03:53:29.432Z,22.4
2019-06-15T03:54:32.067Z,22.3
2019-06-15T03:55:33.734Z,22.4
2019-06-15T03:56:35.630Z,22.3
2019-06-15T03:57:37.526Z,22.2
2019-06-15T03:58:39.945Z,22.4
2019-06-15T03:59:42.384Z,22.3
2019-06-15T04:00:44.547Z,22.3
2019-06-15T04:01:47.003Z,22.4
2019-06-15T04:02:49.429Z,22.4
2019-06-15T04:03:51.570Z,22.3
2019-06-15T04:04:53.729Z,22.3
2019-06-15T04:05:56.210Z,22.3
2019-06-15T04:06:58.061Z,22.4
2019-06-15T04:08:00.495Z,22.3
2019-06-15T04:09:02.663Z,22.3
2019-06-15T04:10:04.805Z,22.3
2019-06-15T04:11:07.245Z,22.2
2019-06-15T04:12:08.835Z,22.3
2019-06-15T04:13:11.285Z,22.3
2019-06-15T04:14:13.713Z,22.3
2019-06-15T04:15:15.911Z,22.4
2019-06-15T04:16:17.782Z,22.3
2019-06-15T04:17:20.213Z,22.3
2019-06-15T04:18:22.393Z,22.3
2019-06-15T04:19:24.317Z,22.3
2019-06-15T04:20:26.739Z,22.4
2019-06-15T04:21:29.157Z,22.3
2019-06-15T04:22:31.578Z,22.3
2019-06-15T04:23:34.184Z,22.3
2019-06-15T04:24:36.343Z,22.4
2019-06-15T04:25:38.514Z,22.3
2019-06-15T04:26:40.671Z,22.2
2019-06-15T04:27:42.554Z,22.3
2019-06-15T04:28:44.717Z,22.3
2019-06-15T04:29:46.327Z,22.4
2019-06-15T04:30:48.803Z,22.3
2019-06-15T04:31:51.343Z,22.4
2019-06-15T04:32:53.777Z,22.3
2019-06-15T04:33:56.215Z,22.4
2019-06-15T04:34:58.377Z,22.3
2019-06-15T04:36:00.607Z,22.3
2019-06-15T04:37:02.183Z,22.3
2019-06-15T04:38:04.343Z,22.4
2019-06-15T04:39:06.774Z,22.3
2019-06-15T04:40:08.650Z,22.2
2019-06-15T04:41:11.093Z,22.2
2019-06-15T04:42:13.240Z,22.4
2019-06-15T04:43:15.387Z,22.4
2019-06-15T04:44:17.818Z,22.3
2019-06-15T04:45:19.958Z,22.2
2019-06-15T04:46:22.431Z,22.3
2019-06-15T04:47:24.571Z,22.3
2019-06-15T04:48:27.089Z,22.4
2019-06-15T04:49:29.524Z,22.3
2019-06-15T04:50:31.689Z,22.3
2019-06-15T04:51:34.117Z,22.3
2019-06-15T04:52:36.549Z,22.3
2019-06-15T04:53:39.001Z,22.4
2019-06-15T04:54:41.434Z,22.3
2019-06-15T04:55:43.901Z,22.2
2019-06-15T04:57:51.367Z,22.3
2019-06-15T04:58:53.249Z,22.2
2019-06-15T04:59:55.176Z,22.2
2019-06-15T05:00:57.636Z,22.3
2019-06-15T05:02:00.105Z,22.3
2019-06-15T05:03:02.519Z,22.3
2019-06-15T05:04:04.119Z,22.3
2019-06-15T05:05:06.001Z,22.2
2019-06-15T05:06:08.147Z,22.3
2019-06-15T05:07:10.594Z,22.4
2019-06-15T05:08:12.516Z,22.3
2019-06-15T05:09:14.953Z,22.3
2019-06-15T05:10:17.386Z,22.3
2019-06-15T05:11:19.811Z,22.3
2019-06-15T05:12:21.954Z,22.4
2019-06-15T05:13:24.392Z,22.2
2019-06-15T05:14:26.545Z,22.4
2019-06-15T05:15:28.739Z,22.4
2019-06-15T05:16:31.216Z,22.3
2019-06-15T05:17:33.389Z,22.4
2019-06-15T05:18:35.311Z,22.3
2019-06-15T05:19:37.741Z,22.3
2019-06-15T05:20:39.718Z,22.4
2019-06-15T05:21:42.325Z,22.2
2019-06-15T05:22:44.279Z,22.3
2019-06-15T05:23:46.155Z,22.3
2019-06-15T05:24:48.596Z,22.4
2019-06-15T05:25:51.101Z,22.3
2019-06-15T05:27:58.510Z,22.4
2019-06-15T05:29:00.944Z,22.4
2019-06-15T05:30:03.375Z,22.3
2019-06-15T05:31:05.802Z,22.2
2019-06-15T05:32:07.895Z,22.3
2019-06-15T05:33:10.367Z,22.3
2019-06-15T05:34:12.536Z,22.3
2019-06-15T05:35:14.696Z,22.3
2019-06-15T05:36:16.846Z,22.3
2019-06-15T05:37:19.316Z,22.3
2019-06-15T05:38:21.481Z,22.2
2019-06-15T05:39:23.394Z,22.2
2019-06-15T05:40:26.108Z,22.3
2019-06-15T05:41:28.259Z,22.4
2019-06-15T05:42:30.702Z,22.3
2019-06-15T05:43:33.186Z,22.4
2019-06-15T05:44:35.621Z,22.4
2019-06-15T05:45:37.751Z,22.3
2019-06-15T05:46:40.173Z,22.3
2019-06-15T05:47:42.057Z,22.3
2019-06-15T05:48:44.211Z,22.3
2019-06-15T05:49:46.644Z,22.2
2019-06-15T05:50:48.800Z,22.2
2019-06-15T05:51:50.930Z,22.3
2019-06-15T05:52:53.081Z,22.4
2019-06-15T05:53:55.241Z,22.2
2019-06-15T05:54:57.389Z,22.2
2019-06-15T05:55:59.535Z,22.3
2019-06-15T05:57:01.967Z,22.2
2019-06-15T05:58:04.140Z,22.3
2019-06-15T05:59:06.301Z,22.4
2019-06-15T06:00:08.732Z,22.3
2019-06-15T06:01:11.299Z,22.4
2019-06-15T06:02:13.452Z,22.3
2019-06-15T06:03:15.586Z,22.2
2019-06-15T06:04:18.009Z,22.3
2019-06-15T06:05:20.437Z,22.3
2019-06-15T06:06:22.324Z,22.2
2019-06-15T06:07:24.524Z,22.3
2019-06-15T06:08:26.955Z,22.2
2019-06-15T06:09:30.503Z,22.3
2019-06-15T06:10:36.658Z,22.2
2019-06-15T06:11:38.823Z,22.2
2019-06-15T06:12:41.246Z,22.2
2019-06-15T06:13:43.386Z,22.3
2019-06-15T06:14:45.544Z,22.2
2019-06-15T06:15:47.720Z,22.3
2019-06-15T06:16:49.869Z,22.2
2019-06-15T06:17:52.306Z,22.3
2019-06-15T06:18:54.738Z,22.3
2019-06-15T06:19:56.911Z,22.3
2019-06-15T06:20:58.831Z,22.2
2019-06-15T06:22:01.277Z,22.2
2019-06-15T06:23:03.715Z,22.3
2019-06-15T06:24:06.143Z,22.2
2019-06-15T06:25:08.291Z,22.2
2019-06-15T06:26:10.716Z,22.3
2019-06-15T06:27:13.167Z,22.3
2019-06-15T06:28:15.362Z,22.3
2019-06-15T06:29:17.770Z,22.3
2019-06-15T06:30:19.922Z,22.3
2019-06-15T06:31:22.354Z,22.2
2019-06-15T06:32:24.784Z,22.3
2019-06-15T06:33:27.215Z,22.3
2019-06-15T06:34:29.381Z,22.3
2019-06-15T06:35:31.796Z,22.4
2019-06-15T06:36:34.212Z,22.3
2019-06-15T06:37:36.703Z,22.3
2019-06-15T06:38:39.126Z,22.2
2019-06-15T06:39:40.996Z,22.3
2019-06-15T06:40:43.463Z,22.3
2019-06-15T06:41:45.926Z,22.2
2019-06-15T06:42:48.090Z,22.4
2019-06-15T06:43:50.638Z,22.3
2019-06-15T06:44:52.792Z,22.2
2019-06-15T06:45:55.224Z,22.2
2019-06-15T06:46:57.674Z,22.2
2019-06-15T06:48:00.111Z,22.2
2019-06-15T06:49:02.562Z,22.3
2019-06-15T06:50:05.035Z,22.3
2019-06-15T06:51:07.473Z,22.3
2019-06-15T06:52:09.909Z,22.3
2019-06-15T06:53:12.333Z,22.4
2019-06-15T06:54:14.490Z,22.2
2019-06-15T06:55:16.914Z,22.2
2019-06-15T06:56:19.584Z,22.3
2019-06-15T06:57:22.002Z,22.2
2019-06-15T06:58:24.423Z,22.3
2019-06-15T06:59:26.853Z,22.2
2019-06-15T07:00:28.993Z,22.3
2019-06-15T07:01:31.421Z,22.2
2019-06-15T07:02:34.008Z,22.2
2019-06-15T07:03:36.508Z,22.3
2019-06-15T07:04:39.041Z,22.2
2019-06-15T07:05:41.194Z,22.2
2019-06-15T07:06:43.648Z,22.2
2019-06-15T07:07:46.158Z,22.2
2019-06-15T07:08:48.611Z,22.2
2019-06-15T07:09:50.593Z,22.3
2019-06-15T07:10:53.019Z,22.3
2019-06-15T07:11:55.496Z,22.3
2019-06-15T07:12:57.926Z,22.3
2019-06-15T07:14:00.358Z,22.3
2019-06-15T07:16:08.000Z,22.3
2019-06-15T07:17:10.605Z,22.2
2019-06-15T07:18:12.826Z,22.3
2019-06-15T07:19:15.014Z,22.3
2019-06-15T07:20:18.126Z,22.3
2019-06-15T07:21:20.028Z,22.3
2019-06-15T07:22:22.184Z,22.3
2019-06-15T07:23:24.618Z,22.2
2019-06-15T07:24:26.773Z,22.2
2019-06-15T07:25:28.945Z,22.3
2019-06-15T07:26:31.085Z,22.2
2019-06-15T07:27:33.240Z,22.2
2019-06-15T07:28:35.404Z,22.4
2019-06-15T07:29:37.566Z,22.2
2019-06-15T07:30:39.917Z,22.3
2019-06-15T07:31:42.067Z,22.3
2019-06-15T07:32:44.505Z,22.3
2019-06-15T07:33:46.730Z,22.3
2019-06-15T07:34:49.755Z,22.3
2019-06-15T07:35:51.913Z,22.3
2019-06-15T07:36:54.223Z,22.3
2019-06-15T07:37:56.854Z,22.3
2019-06-15T07:38:59.315Z,22.3
2019-06-15T07:40:01.748Z,22.3
2019-06-15T07:41:04.173Z,22.2
2019-06-15T07:42:06.372Z,22.2
2019-06-15T07:43:08.844Z,22.3
2019-06-15T07:44:11.004Z,22.2
2019-06-15T07:45:13.252Z,22.3
2019-06-15T07:46:15.779Z,22.3
2019-06-15T07:47:17.684Z,22.3
2019-06-15T07:48:20.117Z,22.4
2019-06-15T07:49:22.546Z,22.5
2019-06-15T07:50:25.032Z,22.4
2019-06-15T07:51:27.166Z,22.5
2019-06-15T07:52:29.595Z,22.4
2019-06-15T07:53:32.032Z,22.4
2019-06-15T07:54:36.721Z,22.5
2019-06-15T07:55:39.151Z,22.6
2019-06-15T07:56:41.597Z,22.4
2019-06-15T07:57:44.027Z,22.6
2019-06-15T07:58:46.177Z,22.6
2019-06-15T07:59:48.600Z,22.5
2019-06-15T08:00:51.028Z,22.6
2019-06-15T08:01:53.187Z,22.6
2019-06-15T08:02:55.699Z,22.6
2019-06-15T08:03:58.195Z,22.5
2019-06-15T08:05:00.362Z,22.7
2019-06-15T08:06:02.519Z,22.7
2019-06-15T08:07:04.385Z,22.6
2019-06-15T08:08:06.808Z,22.7
2019-06-15T08:09:09.235Z,22.7
2019-06-15T08:10:12.272Z,22.7
2019-06-15T08:11:14.716Z,22.7
2019-06-15T08:12:17.209Z,22.7
2019-06-15T08:13:19.396Z,22.7
2019-06-15T08:14:21.839Z,22.7
2019-06-15T08:15:24.017Z,22.7
2019-06-15T08:16:26.378Z,22.7
2019-06-15T08:17:28.829Z,22.8
2019-06-15T08:18:30.979Z,22.7
2019-06-15T08:19:33.114Z,22.8
2019-06-15T08:20:35.544Z,22.8
2019-06-15T08:21:37.995Z,22.8
2019-06-15T08:22:40.177Z,22.8
2019-06-15T08:23:42.706Z,22.8
2019-06-15T08:24:45.150Z,22.9
2019-06-15T08:25:47.586Z,22.8
2019-06-15T08:26:49.451Z,22.8
2019-06-15T08:27:51.894Z,22.9
2019-06-15T08:28:53.761Z,22.8
2019-06-15T08:29:55.957Z,22.8
2019-06-15T08:30:57.543Z,22.8
2019-06-15T08:32:00.005Z,22.7
2019-06-15T08:33:02.461Z,22.7
2019-06-15T08:34:04.912Z,22.8
2019-06-15T08:35:07.354Z,22.9
2019-06-15T08:36:09.806Z,22.8
2019-06-15T08:37:12.259Z,22.8
2019-06-15T08:38:14.456Z,22.8
2019-06-15T08:39:16.629Z,22.8
2019-06-15T08:40:19.117Z,22.8
2019-06-15T08:41:21.564Z,22.7
2019-06-15T08:42:23.748Z,22.8
2019-06-15T08:43:26.199Z,22.8
2019-06-15T08:44:28.361Z,22.7
2019-06-15T08:45:30.800Z,22.8
2019-06-15T08:46:32.935Z,22.7
2019-06-15T08:47:35.372Z,22.7
2019-06-15T08:48:37.253Z,22.7
2019-06-15T08:49:39.434Z,22.8
2019-06-15T08:50:41.865Z,22.7
2019-06-15T08:51:44.299Z,22.7
2019-06-15T08:52:46.450Z,22.7
2019-06-15T08:53:48.885Z,22.6
2019-06-15T08:54:51.301Z,22.7
2019-06-15T08:55:53.737Z,22.6
2019-06-15T08:56:55.646Z,22.6
2019-06-15T08:57:58.076Z,22.7
2019-06-15T08:59:00.505Z,22.7
2019-06-15T09:00:03.566Z,22.7
2019-06-15T09:01:06.030Z,22.6
2019-06-15T09:02:08.466Z,22.6
2019-06-15T09:03:10.904Z,22.7
2019-06-15T09:04:13.754Z,22.7
2019-06-15T09:05:16.236Z,22.7
2019-06-15T09:06:18.652Z,22.7
2019-06-15T09:07:20.550Z,22.7
2019-06-15T09:08:23.145Z,22.7
2019-06-15T09:10:56.948Z,22.8
2019-06-15T09:11:59.421Z,22.7
2019-06-15T09:13:01.938Z,22.5
2019-06-15T09:14:04.368Z,22.6
2019-06-15T09:15:06.800Z,22.6
2019-06-15T09:16:09.254Z,22.6
2019-06-15T09:17:11.146Z,22.7
2019-06-15T09:18:13.319Z,22.7
2019-06-15T09:19:15.195Z,22.6
2019-06-15T09:20:17.675Z,22.7
2019-06-15T09:21:19.847Z,22.7
2019-06-15T09:22:22.284Z,22.7
2019-06-15T09:23:24.716Z,22.6
2019-06-15T09:24:26.872Z,22.6
2019-06-15T09:25:29.036Z,22.6
2019-06-15T09:26:31.467Z,22.6
2019-06-15T09:27:33.707Z,22.7
2019-06-15T09:28:35.880Z,22.6
2019-06-15T09:29:38.324Z,22.6
2019-06-15T09:30:40.502Z,22.6
2019-06-15T09:31:45.704Z,22.6
2019-06-15T09:32:48.161Z,22.7
2019-06-15T09:33:50.597Z,22.6
2019-06-15T09:34:53.031Z,22.6
2019-06-15T09:35:54.613Z,22.6
2019-06-15T09:36:56.817Z,22.7
2019-06-15T09:37:58.948Z,22.6
2019-06-15T09:39:01.105Z,22.7
2019-06-15T09:40:03.528Z,22.6
2019-06-15T09:41:05.962Z,22.7
2019-06-15T09:42:08.472Z,22.6
2019-06-15T09:43:10.914Z,22.7
2019-06-15T09:44:13.356Z,22.6
2019-06-15T09:45:15.798Z,22.6
2019-06-15T09:46:18.260Z,22.7
2019-06-15T09:47:21.123Z,22.6
2019-06-15T09:48:23.562Z,22.6
2019-06-15T09:49:25.984Z,22.6
2019-06-15T09:50:28.426Z,22.6
2019-06-15T09:51:30.874Z,22.5
2019-06-15T09:52:33.038Z,22.6
2019-06-15T09:53:35.419Z,22.6
2019-06-15T09:54:37.577Z,22.6
2019-06-15T09:55:39.995Z,22.6
2019-06-15T09:56:42.150Z,22.6
2019-06-15T09:57:44.621Z,22.7
2019-06-15T09:58:46.786Z,22.6
2019-06-15T09:59:49.221Z,22.7
2019-06-15T10:00:51.399Z,22.5
2019-06-15T10:01:53.555Z,22.6
2019-06-15T10:02:55.978Z,22.6
2019-06-15T10:03:58.139Z,22.6
2019-06-15T10:05:00.034Z,22.6
2019-06-15T10:06:02.485Z,22.6
2019-06-15T10:07:04.919Z,22.7
2019-06-15T10:08:07.369Z,22.6
2019-06-15T10:09:09.846Z,22.6
2019-06-15T10:10:12.112Z,22.5
2019-06-15T10:11:14.700Z,22.6
2019-06-15T10:12:17.133Z,22.6
2019-06-15T10:13:19.603Z,22.6
2019-06-15T10:14:22.034Z,22.6
2019-06-15T10:15:24.485Z,22.7
2019-06-15T10:16:26.643Z,22.6
2019-06-15T10:17:28.814Z,22.6
2019-06-15T10:18:31.245Z,22.6
2019-06-15T10:19:33.675Z,22.6
2019-06-15T10:20:36.143Z,22.7
2019-06-15T10:21:38.766Z,22.6
2019-06-15T10:22:41.198Z,22.5
2019-06-15T10:23:43.086Z,22.6
2019-06-15T10:24:45.516Z,22.7
2019-06-15T10:26:52.690Z,22.6
2019-06-15T10:27:55.135Z,22.6
2019-06-15T10:28:57.296Z,22.6
2019-06-15T10:29:59.454Z,22.5
2019-06-15T10:31:01.606Z,22.6
2019-06-15T10:32:03.913Z,22.6
2019-06-15T10:33:06.350Z,22.6
2019-06-15T10:34:08.770Z,22.5
2019-06-15T10:35:10.933Z,22.6
2019-06-15T10:36:13.403Z,22.6
2019-06-15T10:37:15.825Z,22.6
2019-06-15T10:38:18.245Z,22.6
2019-06-15T10:39:20.722Z,22.7
2019-06-15T10:40:23.151Z,22.7
2019-06-15T10:41:25.311Z,22.6
2019-06-15T10:42:27.748Z,22.6
2019-06-15T10:43:30.178Z,22.6
2019-06-15T10:44:32.635Z,22.6
2019-06-15T10:45:35.094Z,22.6
2019-06-15T10:46:37.266Z,22.5
2019-06-15T10:47:39.703Z,22.6
2019-06-15T10:48:42.132Z,22.6
2019-06-15T10:49:44.560Z,22.6
2019-06-15T10:50:46.726Z,22.5
2019-06-15T10:51:49.177Z,22.6
2019-06-15T10:52:51.615Z,22.5
2019-06-15T10:53:54.046Z,22.5
2019-06-15T10:54:56.516Z,22.6
2019-06-15T10:55:58.134Z,22.6
2019-06-15T10:57:00.570Z,22.6
2019-06-15T10:58:02.730Z,22.6
2019-06-15T10:59:04.902Z,22.7
2019-06-15T11:00:07.455Z,22.6
2019-06-15T11:01:09.896Z,22.5
2019-06-15T11:02:12.057Z,22.6
2019-06-15T11:03:14.211Z,22.6
2019-06-15T11:04:16.656Z,22.6
2019-06-15T11:05:19.083Z,22.6
2019-06-15T11:06:21.236Z,22.6
2019-06-15T11:07:23.725Z,22.6
2019-06-15T11:08:26.159Z,22.5
2019-06-15T11:09:28.601Z,22.6
2019-06-15T11:10:31.085Z,22.5
2019-06-15T11:11:33.510Z,22.6
2019-06-15T11:13:40.938Z,22.6
2019-06-15T11:14:43.377Z,22.6
2019-06-15T11:15:45.577Z,22.6
2019-06-15T11:16:48.037Z,22.5
2019-06-15T11:17:50.473Z,22.6
2019-06-15T11:18:52.913Z,22.6
2019-06-15T11:19:54.795Z,22.6
2019-06-15T11:20:59.214Z,22.6
2019-06-15T11:22:01.641Z,22.6
2019-06-15T11:23:03.808Z,22.6
2019-06-15T11:24:06.249Z,22.6
2019-06-15T11:25:08.687Z,22.6
2019-06-15T11:26:11.126Z,22.6
2019-06-15T11:27:13.558Z,22.6
2019-06-15T11:28:15.725Z,22.6
2019-06-15T11:29:18.161Z,22.6
2019-06-15T11:30:20.598Z,22.5
2019-06-15T11:31:23.031Z,22.7
2019-06-15T11:32:25.456Z,22.6
2019-06-15T11:33:27.644Z,22.6
2019-06-15T11:34:30.060Z,22.5
2019-06-15T11:35:32.508Z,22.6
2019-06-15T11:36:34.358Z,22.6
2019-06-15T11:37:36.510Z,22.6
2019-06-15T11:38:39.522Z,22.6
2019-06-15T11:39:41.705Z,22.6
2019-06-15T11:40:43.875Z,22.6
2019-06-15T11:41:45.759Z,22.6
2019-06-15T11:42:50.317Z,22.5
2019-06-15T11:43:52.496Z,22.6
2019-06-15T11:44:54.935Z,22.5
2019-06-15T11:45:57.106Z,22.6
2019-06-15T11:46:58.992Z,22.6
2019-06-15T11:48:01.189Z,22.6
2019-06-15T11:49:03.674Z,22.5
2019-06-15T11:50:05.833Z,22.6
2019-06-15T11:51:08.266Z,22.6
2019-06-15T11:52:10.708Z,22.6
2019-06-15T11:53:13.153Z,22.6
2019-06-15T11:54:15.610Z,22.6
2019-06-15T11:56:23.077Z,22.5
2019-06-15T11:57:25.265Z,22.5
2019-06-15T11:58:27.460Z,22.5
2019-06-15T11:59:29.894Z,22.7
2019-06-15T12:00:32.448Z,22.5
2019-06-15T12:01:34.614Z,22.7
2019-06-15T12:02:37.053Z,22.7
2019-06-15T12:03:39.480Z,22.7
2019-06-15T12:04:41.655Z,22.6
2019-06-15T12:05:48.078Z,22.7
2019-06-15T12:06:51.138Z,22.5
2019-06-15T12:07:53.293Z,22.6
2019-06-15T12:08:55.152Z,22.6
2019-06-15T12:09:57.602Z,22.6
2019-06-15T12:10:59.809Z,22.6
2019-06-15T12:12:02.297Z,22.6
2019-06-15T12:13:04.490Z,22.6
2019-06-15T12:14:06.913Z,22.5
2019-06-15T12:15:09.346Z,22.6
2019-06-15T12:16:11.797Z,22.6
2019-06-15T12:17:13.954Z,22.7
2019-06-15T12:18:16.109Z,22.6
2019-06-15T12:19:18.258Z,22.7
2019-06-15T12:20:20.455Z,22.6
2019-06-15T12:21:22.618Z,22.6
2019-06-15T12:22:25.057Z,22.6
2019-06-15T12:23:27.483Z,22.6
2019-06-15T12:24:29.908Z,22.6
2019-06-15T12:25:32.354Z,22.6
2019-06-15T12:26:34.802Z,22.6
2019-06-15T12:27:37.235Z,22.6
2019-06-15T12:28:39.393Z,22.6
2019-06-15T12:29:41.272Z,22.6
2019-06-15T12:31:48.189Z,22.6
2019-06-15T12:32:50.057Z,22.5
2019-06-15T12:33:52.605Z,22.6
2019-06-15T12:34:54.783Z,22.5
2019-06-15T12:35:57.224Z,22.6
2019-06-15T12:36:59.654Z,22.6
2019-06-15T12:38:01.814Z,22.6
2019-06-15T12:39:03.978Z,22.7
2019-06-15T12:40:06.405Z,22.5
2019-06-15T12:41:08.612Z,22.6
2019-06-15T12:42:10.782Z,22.6
2019-06-15T12:43:13.219Z,22.6
2019-06-15T12:44:15.434Z,22.6
2019-06-15T12:45:17.062Z,22.6
2019-06-15T12:46:19.539Z,22.6
2019-06-15T12:47:21.994Z,22.6
2019-06-15T12:48:24.154Z,22.6
2019-06-15T12:49:26.580Z,22.7
2019-06-15T12:50:29.219Z,22.6
2019-06-15T12:51:31.650Z,22.6
2019-06-15T12:52:33.964Z,22.6
2019-06-15T12:53:35.834Z,22.6
2019-06-15T12:54:38.309Z,22.6
2019-06-15T12:55:40.531Z,22.7
2019-06-15T12:56:42.952Z,22.6
2019-06-15T12:57:45.387Z,22.6
2019-06-15T12:58:47.264Z,22.7
2019-06-15T12:59:49.763Z,22.6
2019-06-15T13:01:57.188Z,22.5
2019-06-15T13:02:59.629Z,22.5
2019-06-15T13:04:01.783Z,22.6
2019-06-15T13:05:03.926Z,22.7
2019-06-15T13:06:06.078Z,22.7
2019-06-15T13:07:08.495Z,22.6
2019-06-15T13:08:10.947Z,22.7
2019-06-15T13:09:13.373Z,22.6
2019-06-15T13:11:20.795Z,22.6
2019-06-15T13:12:22.958Z,22.5
2019-06-15T13:13:25.119Z,22.6
2019-06-15T13:14:28.108Z,22.6
2019-06-15T13:15:30.541Z,22.7
2019-06-15T13:17:37.457Z,22.6
2019-06-15T13:18:39.894Z,22.6
2019-06-15T13:19:42.116Z,22.5
2019-06-15T13:20:44.535Z,22.6
2019-06-15T13:21:46.975Z,22.6
2019-06-15T13:22:49.403Z,22.5
2019-06-15T13:23:51.570Z,22.7
2019-06-15T13:24:54.047Z,22.5
2019-06-15T13:25:56.482Z,22.6
2019-06-15T13:26:59.138Z,22.6
2019-06-15T13:28:01.571Z,22.6
2019-06-15T13:29:04.055Z,22.6
2019-06-15T13:30:06.211Z,22.6
2019-06-15T13:32:13.636Z,22.6
2019-06-15T13:33:16.064Z,22.6
2019-06-15T13:34:18.485Z,22.5
2019-06-15T13:35:20.937Z,22.6
2019-06-15T13:36:22.806Z,22.6
2019-06-15T13:37:25.247Z,22.5
2019-06-15T13:38:31.710Z,22.5
2019-06-15T13:39:33.646Z,22.6
2019-06-15T13:40:35.852Z,22.6
2019-06-15T13:41:38.287Z,22.6
2019-06-15T13:42:40.715Z,22.6
2019-06-15T13:43:43.146Z,22.6
2019-06-15T13:44:45.273Z,22.6
2019-06-15T13:45:47.704Z,22.7
2019-06-15T13:46:49.855Z,22.6
2019-06-15T13:47:52.032Z,22.6
2019-06-15T13:48:54.491Z,22.6
2019-06-15T13:49:56.921Z,22.6
2019-06-15T13:50:59.095Z,22.6
2019-06-15T13:52:01.274Z,22.6
2019-06-15T13:53:03.470Z,22.6
2019-06-15T13:54:05.329Z,22.6
2019-06-15T13:55:07.481Z,22.6
2019-06-15T13:56:09.942Z,22.6
2019-06-15T13:57:12.381Z,22.6
2019-06-15T13:58:14.813Z,22.5
2019-06-15T13:59:16.740Z,22.7
2019-06-15T14:00:18.897Z,22.5
2019-06-15T14:02:26.063Z,22.7
2019-06-15T14:03:28.499Z,22.6
2019-06-15T14:04:30.645Z,22.5
2019-06-15T14:05:32.783Z,22.6